Time;durP1;ratioP1;P1;durP2;ratioP2;P2;SDS_P1;SDS_P2;PMS_P1;PMS_P2;Temp;Humidity;BMP_temperature;BMP_pressure;BME280_temperature;BME280_humidity;BME280_pressure;Samples;Min_cycle;Max_cycle;Signal;HPM_P1;HPM_P2
2023/03/22 12:39:26;;;;;;;323.27;294.95;;;;;;;26.55;30.07;99893.00;5054588;27;20396;-74
2023/03/22 12:41:54;;;;;;;4.90;0.90;;;;;;;27.55;28.86;99881.84;5030082;28;20465;-73
2023/03/22 12:44:32;;;;;;;1.63;0.70;;;;;;;28.34;27.67;99877.91;5015934;28;20899;-72
2023/03/22 12:47:03;;;;;;;1.30;0.50;;;;;;;27.98;27.86;99870.22;5034793;28;20400;-72
2023/03/22 12:49:42;;;;;;;0.73;0.70;;;;;;;28.11;27.77;99866.06;5020071;28;20394;-71
2023/03/22 12:52:29;;;;;;;3.35;0.57;;;;;;;28.49;27.30;99859.38;5022250;28;20404;-72
2023/03/22 12:54:58;;;;;;;1.00;0.70;;;;;;;29.16;26.94;99862.16;5039763;28;20409;-72
2023/03/22 12:57:24;;;;;;;1.85;0.70;;;;;;;28.68;26.77;99859.25;5025897;28;20524;-72
2023/03/22 12:59:53;;;;;;;1.13;0.70;;;;;;;28.33;27.01;99844.84;5024430;28;20396;-72
2023/03/22 13:02:26;;;;;;;0.73;0.70;;;;;;;27.73;28.05;99846.72;5021981;28;20412;-72
2023/03/22 13:04:55;;;;;;;1.10;0.70;;;;;;;26.97;28.80;99842.25;5023939;28;20412;-72
2023/03/22 13:07:27;;;;;;;3.50;0.60;;;;;;;26.05;29.94;99834.75;5020252;28;20415;-72
2023/03/22 13:09:53;;;;;;;5.50;0.85;;;;;;;25.80;30.65;99837.75;5021635;28;20416;-73
2023/03/22 13:12:23;;;;;;;2.37;0.70;;;;;;;26.20;30.08;99826.41;5024523;28;20416;-73
2023/03/22 13:14:51;;;;;;;3.13;0.70;;;;;;;26.15;29.80;99817.50;5021283;28;20398;-73
2023/03/22 13:17:22;;;;;;;1.83;0.75;;;;;;;25.59;30.38;99825.34;5017427;28;20777;-73
2023/03/22 13:19:57;;;;;;;0.53;0.50;;;;;;;25.41;31.44;99810.22;5022778;28;20400;-73
2023/03/22 13:22:28;;;;;;;1.40;0.47;;;;;;;26.68;30.23;99813.06;5026784;28;20466;-73
2023/03/22 13:25:15;;;;;;;0.53;0.53;;;;;;;27.06;29.05;99812.22;5027446;28;20450;-73
2023/03/22 13:27:55;;;;;;;1.70;0.67;;;;;;;26.72;29.30;99802.81;5018609;28;20414;-72
2023/03/22 13:30:20;;;;;;;0.70;0.65;;;;;;;26.71;28.82;99793.66;5037658;28;20419;-73
2023/03/22 13:32:53;;;;;;;2.13;0.67;;;;;;;26.06;29.26;99803.84;5020053;28;20894;-73
2023/03/22 13:35:26;;;;;;;5.70;0.60;;;;;;;25.47;30.06;99795.72;5027415;28;20392;-73
2023/03/22 13:37:54;;;;;;;3.70;0.60;;;;;;;25.17;30.84;99792.59;5031498;28;20514;-73
2023/03/22 13:40:28;;;;;;;2.88;0.70;;;;;;;24.44;31.74;99788.63;5045619;28;20774;-73
2023/03/22 13:43:27;;;;;;;2.35;0.68;;;;;;;23.86;32.48;99785.34;5047389;28;20437;-72
2023/03/22 13:46:03;;;;;;;2.70;0.40;;;;;;;23.48;33.25;99782.97;5039053;28;20793;-72
2023/03/22 13:48:29;;;;;;;0.80;0.80;;;;;;;23.58;33.19;99792.75;5031201;28;20517;-73
2023/03/22 13:50:57;;;;;;;1.45;0.60;;;;;;;23.63;33.30;99776.75;5025740;28;21078;-73
2023/03/22 13:53:35;;;;;;;1.20;0.70;;;;;;;23.70;33.22;99768.66;5041415;28;20442;-73
2023/03/22 13:56:04;;;;;;;7.07;0.70;;;;;;;23.49;33.38;99778.25;5032365;28;20452;-73
2023/03/22 13:58:52;;;;;;;4.18;0.57;;;;;;;24.14;32.11;99772.34;5030080;28;20460;-72
2023/03/22 14:01:48;;;;;;;3.40;0.70;;;;;;;25.12;30.97;99767.94;5029831;28;20829;-72
2023/03/22 14:04:21;;;;;;;0.75;0.60;;;;;;;25.69;30.29;99770.09;5029913;28;20411;-73
2023/03/22 14:06:56;;;;;;;2.10;0.53;;;;;;;25.70;30.38;99768.94;5027873;28;20879;-73
2023/03/22 14:09:37;;;;;;;1.63;0.52;;;;;;;26.34;29.67;99759.22;5023314;28;20410;-73
2023/03/22 14:12:41;;;;;;;2.80;0.65;;;;;;;26.47;29.43;99757.09;5028732;28;20457;-73
2023/03/22 14:15:13;;;;;;;2.70;0.50;;;;;;;25.94;28.73;99748.44;5028943;28;20761;-72
2023/03/22 14:17:46;;;;;;;1.00;0.40;;;;;;;25.43;28.60;99752.41;5020909;28;20424;-73
2023/03/22 14:20:18;;;;;;;0.80;0.50;;;;;;;25.04;29.57;99752.28;5027678;28;20395;-73
2023/03/22 14:22:47;;;;;;;1.13;0.50;;;;;;;24.83;29.58;99745.41;5018524;28;20416;-73
2023/03/22 14:25:18;;;;;;;2.30;0.60;;;;;;;24.59;29.13;99746.31;5019871;28;20400;-73
2023/03/22 14:27:44;;;;;;;3.15;0.80;;;;;;;24.32;29.25;99749.91;5031768;28;20411;-73
2023/03/22 14:30:35;;;;;;;0.30;0.25;;;;;;;24.13;28.99;99742.28;5022406;28;20888;-73
2023/03/22 14:33:11;;;;;;;1.30;0.50;;;;;;;23.72;29.87;99749.75;5030937;28;20897;-73
2023/03/22 14:35:39;;;;;;;0.40;0.30;;;;;;;23.33;30.12;99742.16;5021067;28;20437;-73
2023/03/22 14:38:08;;;;;;;1.00;0.50;;;;;;;23.18;30.61;99740.88;5024831;28;20770;-73
2023/03/22 14:40:36;;;;;;;2.00;0.65;;;;;;;23.19;31.29;99728.69;5018477;28;20740;-73
2023/03/22 14:43:21;;;;;;;2.40;0.60;;;;;;;23.37;30.53;99737.56;5029657;28;20456;-73
2023/03/22 14:46:21;;;;;;;2.55;0.63;;;;;;;23.07;30.46;99734.22;5044940;28;20429;-72
2023/03/22 14:48:51;;;;;;;3.35;0.60;;;;;;;22.87;30.71;99734.31;5022891;28;20415;-73
2023/03/22 14:51:21;;;;;;;0.50;0.50;;;;;;;22.71;31.00;99725.91;5022443;28;20910;-73
2023/03/22 14:53:47;;;;;;;0.40;0.40;;;;;;;22.60;31.25;99728.28;5021101;28;20429;-73
2023/03/22 14:56:18;;;;;;;0.47;0.47;;;;;;;22.50;31.36;99727.91;5040051;28;20429;-73
2023/03/22 14:58:45;;;;;;;1.20;0.50;;;;;;;22.41;32.35;99728.00;5029035;28;20915;-73
2023/03/22 15:01:16;;;;;;;1.58;0.80;;;;;;;22.27;32.67;99735.75;5027292;28;20431;-71
2023/03/22 15:03:46;;;;;;;0.60;0.60;;;;;;;22.18;32.97;99735.88;5032352;28;20403;-72
2023/03/22 15:06:12;;;;;;;1.30;0.70;;;;;;;22.09;33.01;99731.56;5023880;28;20423;-72
2023/03/22 15:08:38;;;;;;;1.17;0.60;;;;;;;22.03;33.26;99732.94;5026698;28;20988;-71
2023/03/22 15:11:06;;;;;;;1.50;0.85;;;;;;;22.01;33.76;99727.75;5032358;28;20516;-72
2023/03/22 15:13:35;;;;;;;3.38;0.90;;;;;;;21.95;34.01;99725.53;5029479;28;20395;-71
2023/03/22 15:16:02;;;;;;;0.70;0.70;;;;;;;21.77;34.07;99724.03;5025336;28;20407;-71
2023/03/22 15:18:29;;;;;;;0.80;0.60;;;;;;;21.62;34.34;99722.69;5017088;28;20517;-72
2023/03/22 15:20:56;;;;;;;0.98;0.90;;;;;;;21.62;34.66;99723.50;5023347;28;20404;-72
2023/03/22 15:23:45;;;;;;;1.10;0.80;;;;;;;21.68;34.56;99718.56;5021111;28;20805;-72
2023/03/22 15:26:28;;;;;;;1.63;1.00;;;;;;;21.65;34.47;99716.47;5020450;28;20451;-72
2023/03/22 15:28:57;;;;;;;1.50;1.00;;;;;;;21.62;34.74;99708.88;5016872;28;20432;-72
2023/03/22 15:31:26;;;;;;;0.88;0.75;;;;;;;21.55;34.90;99709.44;5023901;28;20404;-72
2023/03/22 15:33:53;;;;;;;1.55;0.88;;;;;;;21.44;34.76;99705.44;5024838;28;20387;-70
2023/03/22 15:36:20;;;;;;;0.70;0.70;;;;;;;21.30;34.74;99701.34;5027489;28;20472;-71
2023/03/22 15:38:47;;;;;;;0.70;0.70;;;;;;;21.25;35.06;99712.53;5029479;28;20419;-71
2023/03/22 15:41:20;;;;;;;1.20;0.90;;;;;;;21.23;35.52;99714.84;5023981;28;20422;-71
2023/03/22 15:43:47;;;;;;;0.80;0.70;;;;;;;21.15;35.59;99708.22;5016536;28;20910;-71
2023/03/22 15:46:20;;;;;;;1.30;0.55;;;;;;;21.10;35.64;99700.16;5021456;28;20417;-72
2023/03/22 15:48:57;;;;;;;1.60;1.05;;;;;;;20.92;35.58;99712.34;5028209;28;20531;-71
2023/03/22 15:51:30;;;;;;;1.05;0.77;;;;;;;20.83;35.71;99701.41;5026654;28;20882;-71
2023/03/22 15:54:11;;;;;;;1.67;0.70;;;;;;;20.75;35.17;99710.50;5024818;28;20448;-71
2023/03/22 15:56:39;;;;;;;1.40;0.60;;;;;;;20.64;35.15;99703.75;5030528;28;20732;-71
2023/03/22 15:59:27;;;;;;;3.97;2.67;;;;;;;20.58;35.48;99700.34;5020368;28;20818;-72
2023/03/22 16:01:57;;;;;;;2.35;0.90;;;;;;;20.48;35.68;99703.44;5026495;28;20403;-71
2023/03/22 16:04:24;;;;;;;0.60;0.60;;;;;;;20.57;35.89;99698.75;5023149;28;20438;-71
2023/03/22 16:06:50;;;;;;;0.60;0.57;;;;;;;20.60;35.64;99697.28;5022565;28;20400;-71
2023/03/22 16:09:16;;;;;;;5.45;0.90;;;;;;;20.56;35.64;99694.38;5027680;28;20392;-71
2023/03/22 16:11:43;;;;;;;1.10;0.60;;;;;;;20.54;35.81;99701.34;5012571;28;20411;-71
2023/03/22 16:14:14;;;;;;;1.20;0.50;;;;;;;20.49;35.63;99699.56;5025294;28;20389;-70
2023/03/22 16:16:40;;;;;;;1.65;0.60;;;;;;;20.44;35.41;99701.69;5022490;28;20902;-70
2023/03/22 16:19:07;;;;;;;1.13;0.65;;;;;;;20.40;35.46;99707.06;5015645;28;20421;-71
2023/03/22 16:21:32;;;;;;;1.30;0.60;;;;;;;20.38;35.34;99703.03;5037404;28;20383;-71
2023/03/22 16:24:00;;;;;;;0.68;0.68;;;;;;;20.33;35.07;99705.94;5032026;28;20889;-70
2023/03/22 16:26:26;;;;;;;0.60;0.60;;;;;;;20.25;35.13;99713.06;5018093;28;20385;-70
2023/03/22 16:28:52;;;;;;;0.80;0.80;;;;;;;20.15;35.34;99711.44;5019475;28;20442;-70
2023/03/22 16:31:19;;;;;;;1.50;1.00;;;;;;;20.11;35.52;99706.94;5015880;28;20457;-70
2023/03/22 16:33:45;;;;;;;4.22;1.27;;;;;;;20.07;35.66;99712.25;5020726;28;20404;-70
2023/03/22 16:36:13;;;;;;;1.33;0.60;;;;;;;19.97;35.97;99709.03;5024049;28;20495;-70
2023/03/22 16:38:39;;;;;;;0.50;0.50;;;;;;;19.89;36.36;99716.16;5026716;28;20423;-70
2023/03/22 16:41:06;;;;;;;0.90;0.60;;;;;;;19.82;36.53;99724.09;5022333;28;20942;-70
2023/03/22 16:43:31;;;;;;;1.63;0.73;;;;;;;19.71;36.96;99722.78;5018528;28;20387;-70
2023/03/22 16:45:59;;;;;;;1.63;0.73;;;;;;;19.68;37.22;99716.00;5020349;28;20799;-70
2023/03/22 16:48:26;;;;;;;1.88;0.68;;;;;;;19.60;37.18;99710.50;5025699;28;20411;-70
2023/03/22 16:50:52;;;;;;;1.77;0.65;;;;;;;19.52;37.79;99722.31;5021223;28;20494;-71
2023/03/22 16:53:17;;;;;;;2.30;0.80;;;;;;;19.43;37.93;99721.50;5029483;28;20486;-70
2023/03/22 16:55:45;;;;;;;1.50;0.70;;;;;;;19.32;38.21;99718.19;5029007;28;20399;-71
2023/03/22 16:58:10;;;;;;;2.30;0.60;;;;;;;19.26;38.32;99721.41;5016354;28;20417;-71
2023/03/22 17:00:36;;;;;;;1.50;0.70;;;;;;;19.17;38.43;99722.19;5027511;28;20400;-70
2023/03/22 17:03:03;;;;;;;0.80;0.80;;;;;;;19.15;38.60;99720.91;5023481;28;20405;-71
2023/03/22 17:05:31;;;;;;;0.70;0.60;;;;;;;19.07;38.40;99716.19;5018231;28;20786;-71
2023/03/22 17:07:57;;;;;;;0.82;0.70;;;;;;;19.01;38.78;99720.22;5025088;28;20468;-71
2023/03/22 17:10:28;;;;;;;1.23;0.90;;;;;;;18.92;38.87;99722.13;5023827;28;20458;-71
2023/03/22 17:12:53;;;;;;;0.85;0.85;;;;;;;18.85;39.09;99722.56;5019284;28;20420;-71
2023/03/22 17:15:34;;;;;;;1.63;1.20;;;;;;;18.77;39.37;99714.31;5017187;28;20400;-72
2023/03/22 17:18:01;;;;;;;1.50;0.90;;;;;;;18.70;39.58;99711.22;5019829;28;20422;-72
2023/03/22 17:20:29;;;;;;;1.30;0.90;;;;;;;18.61;39.56;99720.22;5031488;28;20395;-71
2023/03/22 17:22:59;;;;;;;1.13;0.57;;;;;;;18.54;39.88;99713.56;5027463;28;20396;-72
2023/03/22 17:25:31;;;;;;;0.60;0.60;;;;;;;18.47;39.98;99724.16;5018857;28;20918;-72
2023/03/22 17:28:02;;;;;;;2.30;0.80;;;;;;;18.41;40.03;99726.19;5023154;28;20398;-71
2023/03/22 17:30:28;;;;;;;1.00;1.00;;;;;;;18.37;40.22;99722.50;5025022;28;20399;-72
2023/03/22 17:32:53;;;;;;;1.10;0.60;;;;;;;18.38;40.06;99731.50;5023328;28;20453;-71
2023/03/22 17:35:21;;;;;;;1.20;0.93;;;;;;;18.24;40.58;99728.88;5028277;28;20419;-71
2023/03/22 17:37:47;;;;;;;5.00;1.10;;;;;;;18.19;40.64;99728.16;5030521;28;20423;-71
2023/03/22 17:40:14;;;;;;;2.38;1.13;;;;;;;18.14;40.68;99735.38;5029105;28;20446;-70
2023/03/22 17:42:40;;;;;;;3.60;1.63;;;;;;;18.16;40.75;99737.81;5022473;28;20453;-71
2023/03/22 17:45:11;;;;;;;2.90;1.40;;;;;;;18.13;40.77;99741.19;5022019;28;20405;-71
2023/03/22 17:47:36;;;;;;;1.15;0.95;;;;;;;18.10;40.95;99739.91;5031308;28;20444;-71
2023/03/22 17:50:02;;;;;;;1.70;0.90;;;;;;;18.07;41.09;99739.72;5031348;28;20801;-71
2023/03/22 17:52:27;;;;;;;0.90;0.90;;;;;;;17.99;41.28;99746.75;5023313;28;20392;-71
2023/03/22 17:54:52;;;;;;;1.50;1.00;;;;;;;17.98;41.30;99749.81;5023610;28;20408;-71
2023/03/22 17:57:17;;;;;;;1.23;1.10;;;;;;;17.97;41.38;99751.72;5025801;28;20750;-72
2023/03/22 17:59:43;;;;;;;1.90;1.50;;;;;;;17.95;41.51;99747.66;5034166;28;20387;-71
2023/03/22 18:02:17;;;;;;;1.33;1.23;;;;;;;17.92;41.73;99746.34;5038206;28;20415;-71
2023/03/22 18:04:42;;;;;;;1.55;1.10;;;;;;;17.90;41.62;99750.53;5033112;28;20423;-71
2023/03/22 18:07:08;;;;;;;1.90;1.40;;;;;;;17.86;41.95;99747.59;5037429;28;20469;-71
2023/03/22 18:09:33;;;;;;;2.20;1.60;;;;;;;17.75;42.28;99746.19;5036325;28;20402;-71
2023/03/22 18:11:59;;;;;;;1.73;1.63;;;;;;;17.69;42.50;99744.69;5030480;28;20429;-71
2023/03/22 18:14:25;;;;;;;2.07;1.43;;;;;;;17.65;42.54;99746.44;5029557;28;20893;-71
2023/03/22 18:16:50;;;;;;;1.80;1.70;;;;;;;17.58;42.98;99752.34;5028623;28;20393;-71
2023/03/22 18:19:15;;;;;;;2.67;1.47;;;;;;;17.56;43.01;99753.78;5034044;28;20490;-71
2023/03/22 18:21:40;;;;;;;2.57;2.20;;;;;;;17.54;42.84;99755.97;5028835;28;20778;-70
2023/03/22 18:24:06;;;;;;;2.00;1.80;;;;;;;17.50;43.03;99747.56;5025474;28;20391;-72
2023/03/22 18:26:32;;;;;;;0.97;0.97;;;;;;;17.48;42.91;99751.75;5033832;28;20766;-71
2023/03/22 18:28:58;;;;;;;1.70;0.90;;;;;;;17.42;42.86;99756.50;5033760;28;20928;-72
2023/03/22 18:31:24;;;;;;;6.25;2.65;;;;;;;17.37;43.22;99753.88;5027692;28;20425;-71
2023/03/22 18:33:50;;;;;;;3.60;1.88;;;;;;;17.38;43.60;99761.00;5016846;28;20527;-71
2023/03/22 18:36:15;;;;;;;1.50;1.40;;;;;;;17.35;43.69;99761.59;5026616;28;20391;-71
2023/03/22 18:38:41;;;;;;;1.93;1.20;;;;;;;17.24;44.19;99767.59;5016932;28;20521;-72
2023/03/22 18:41:10;;;;;;;1.42;0.90;;;;;;;17.16;44.29;99768.31;5018163;28;20931;-72
2023/03/22 18:43:35;;;;;;;1.03;1.03;;;;;;;17.09;44.65;99768.72;5025062;28;20472;-71
2023/03/22 18:46:13;;;;;;;2.40;1.20;;;;;;;17.07;44.65;99771.75;5024967;28;20489;-71
2023/03/22 18:48:39;;;;;;;0.90;0.90;;;;;;;17.06;44.54;99769.31;5017959;28;20412;-71
2023/03/22 18:51:05;;;;;;;1.70;0.90;;;;;;;17.07;44.54;99769.00;5021938;28;20870;-71
2023/03/22 18:53:32;;;;;;;3.40;1.30;;;;;;;17.04;44.56;99768.81;5033340;28;20447;-71
2023/03/22 18:55:58;;;;;;;1.13;1.02;;;;;;;17.04;44.76;99769.63;5020370;28;20393;-72
2023/03/22 18:58:23;;;;;;;2.73;1.20;;;;;;;17.06;44.82;99763.81;5024326;28;20413;-72
2023/03/22 19:00:48;;;;;;;1.55;1.45;;;;;;;17.08;44.59;99758.88;5028674;28;20425;-71
2023/03/22 19:03:14;;;;;;;0.83;0.83;;;;;;;17.05;44.69;99771.25;5021888;28;20810;-71
2023/03/22 19:05:40;;;;;;;1.50;1.20;;;;;;;17.06;45.55;99772.03;5022644;28;20892;-71
2023/03/22 19:08:06;;;;;;;3.85;1.95;;;;;;;17.02;45.55;99765.56;5028898;28;20534;-71
2023/03/22 19:10:32;;;;;;;2.10;2.00;;;;;;;17.02;45.37;99760.09;5017484;28;20436;-72
2023/03/22 19:12:57;;;;;;;6.80;6.50;;;;;;;16.97;45.45;99769.22;5018819;28;20420;-72
2023/03/22 19:15:22;;;;;;;3.83;3.43;;;;;;;16.98;45.36;99767.28;5025348;28;20411;-72
2023/03/22 19:17:48;;;;;;;22.47;21.40;;;;;;;16.97;45.62;99763.72;5017958;28;20439;-72
2023/03/22 19:20:13;;;;;;;645.13;600.17;;;;;;;16.96;46.02;99769.50;5015574;28;20393;-72
2023/03/22 19:22:39;;;;;;;581.37;542.20;;;;;;;16.91;45.97;99764.13;5029063;28;20895;-71
2023/03/22 19:25:05;;;;;;;719.88;668.40;;;;;;;16.90;46.00;99762.50;5016015;28;20440;-72
2023/03/22 19:27:30;;;;;;;808.38;747.63;;;;;;;16.91;45.85;99761.41;5026325;28;20427;-71
2023/03/22 19:29:57;;;;;;;1090.80;991.95;;;;;;;16.90;45.92;99770.72;5024717;28;20406;-71
2023/03/22 19:32:22;;;;;;;1162.05;999.90;;;;;;;16.80;46.17;99766.25;5020839;28;20445;-72
2023/03/22 19:34:48;;;;;;;1087.03;987.65;;;;;;;16.73;46.17;99760.34;5033545;28;20817;-70
2023/03/22 19:37:13;;;;;;;1209.10;999.90;;;;;;;16.66;46.33;99772.84;5023472;28;20422;-71
2023/03/22 19:39:38;;;;;;;1254.30;999.90;;;;;;;16.84;46.04;99766.47;5046744;28;20407;-71
2023/03/22 19:42:04;;;;;;;1345.40;999.90;;;;;;;16.67;46.34;99764.31;5024836;28;20729;-71
2023/03/22 19:44:29;;;;;;;1348.10;999.90;;;;;;;16.66;46.54;99762.72;5021892;28;20410;-72
2023/03/22 19:46:55;;;;;;;1326.47;999.90;;;;;;;16.59;46.60;99765.03;5032590;28;20490;-71
2023/03/22 19:49:23;;;;;;;1205.80;999.90;;;;;;;16.65;46.62;99763.00;5015621;28;20412;-71
2023/03/22 19:51:49;;;;;;;1151.43;999.90;;;;;;;16.72;46.39;99766.16;5027329;28;20409;-71
2023/03/22 19:54:16;;;;;;;1164.13;999.90;;;;;;;16.71;46.51;99761.78;5028647;28;20406;-72
2023/03/22 19:56:44;;;;;;;1288.88;999.90;;;;;;;16.60;46.75;99761.16;5029658;28;20391;-71
2023/03/22 19:59:09;;;;;;;1680.95;999.90;;;;;;;16.59;46.89;99762.28;5032105;28;20422;-72
2023/03/22 20:01:35;;;;;;;1835.23;999.90;;;;;;;16.55;47.13;99761.25;5015846;28;20383;-71
2023/03/22 20:04:01;;;;;;;1652.27;999.90;;;;;;;16.56;47.22;99762.88;5025078;28;20389;-71
2023/03/22 20:06:28;;;;;;;1594.00;999.90;;;;;;;16.56;47.09;99766.41;5020709;28;20465;-71
2023/03/22 20:08:55;;;;;;;1555.93;991.72;;;;;;;16.53;47.32;99761.50;5017315;28;20389;-71
2023/03/22 20:11:20;;;;;;;1011.03;517.43;;;;;;;16.53;47.55;99764.25;5022117;28;20451;-71
2023/03/22 20:13:46;;;;;;;1999.90;999.90;;;;;;;16.57;47.40;99768.03;5018644;28;20433;-72
2023/03/22 20:16:11;;;;;;;1999.90;999.90;;;;;;;16.64;47.38;99764.09;5021609;28;20469;-71
2023/03/22 20:18:36;;;;;;;1999.90;999.90;;;;;;;16.63;47.31;99768.75;5016586;28;20938;-72
2023/03/22 20:21:02;;;;;;;1999.90;999.90;;;;;;;16.62;47.17;99771.81;5026625;28;20403;-72
2023/03/22 20:23:28;;;;;;;1999.90;999.90;;;;;;;16.58;47.37;99769.69;5015237;28;20403;-72
2023/03/22 20:26:01;;;;;;;1999.90;999.90;;;;;;;16.56;47.62;99777.34;5018962;28;20499;-71
2023/03/22 20:28:31;;;;;;;1999.90;999.90;;;;;;;16.56;47.78;99773.81;5040493;28;20418;-71
2023/03/22 20:30:57;;;;;;;1999.90;999.90;;;;;;;16.52;47.46;99776.31;5028062;28;20402;-71
2023/03/22 20:33:23;;;;;;;1999.90;999.90;;;;;;;16.52;47.43;99783.72;5020719;28;20451;-72
2023/03/22 20:35:54;;;;;;;1999.90;999.90;;;;;;;16.52;47.59;99795.47;5015041;28;20401;-71
2023/03/22 20:38:19;;;;;;;1999.90;999.90;;;;;;;16.53;47.63;99794.34;5021105;28;20447;-72
2023/03/22 20:40:45;;;;;;;1999.90;999.90;;;;;;;16.53;47.71;99796.28;5019390;28;20399;-72
2023/03/22 20:43:10;;;;;;;1999.90;999.90;;;;;;;16.50;47.87;99794.13;5021645;28;20528;-72
2023/03/22 20:45:35;;;;;;;1999.90;999.90;;;;;;;16.49;47.66;99793.34;5026553;28;20406;-71
2023/03/22 20:48:01;;;;;;;1999.90;999.90;;;;;;;16.49;47.77;99790.59;5030908;28;20928;-72
2023/03/22 20:50:27;;;;;;;1999.90;999.90;;;;;;;16.47;47.92;99790.06;5014974;28;20471;-72
2023/03/22 20:52:52;;;;;;;1999.90;999.90;;;;;;;16.43;48.07;99780.84;5030911;28;20395;-72
2023/03/22 20:55:17;;;;;;;1999.90;999.90;;;;;;;16.41;48.42;99785.81;5026893;28;20965;-72
2023/03/22 20:57:45;;;;;;;1999.90;999.90;;;;;;;16.39;48.39;99782.56;5014826;28;20455;-72
2023/03/22 21:00:12;;;;;;;1999.90;999.90;;;;;;;16.36;48.50;99785.09;5013524;28;20410;-71
2023/03/22 21:02:38;;;;;;;1999.90;999.90;;;;;;;16.37;48.04;99783.94;5033848;28;20387;-72
2023/03/22 21:05:07;;;;;;;1999.90;999.90;;;;;;;16.37;48.15;99783.94;5032846;28;20405;-72
2023/03/22 21:07:33;;;;;;;1999.90;999.90;;;;;;;16.35;48.25;99783.44;5036985;28;20445;-72
2023/03/22 21:09:58;;;;;;;1999.90;999.90;;;;;;;16.33;48.52;99788.41;5018235;28;20756;-71
2023/03/22 21:12:23;;;;;;;1999.90;999.90;;;;;;;16.29;48.77;99793.66;5031074;28;20898;-72
2023/03/22 21:14:49;;;;;;;1999.90;999.90;;;;;;;16.26;48.82;99798.91;5023178;28;20405;-71
2023/03/22 21:17:17;;;;;;;1999.90;999.90;;;;;;;16.22;48.90;99795.97;5026863;28;20391;-72
2023/03/22 21:19:45;;;;;;;1999.90;999.90;;;;;;;16.23;48.83;99789.41;5028530;28;20421;-72
2023/03/22 21:22:11;;;;;;;1999.90;999.90;;;;;;;16.26;48.56;99785.25;5026771;28;20400;-72
2023/03/22 21:24:37;;;;;;;1999.90;999.90;;;;;;;16.28;48.65;99800.25;5025406;28;20756;-72
2023/03/22 21:27:03;;;;;;;1999.90;999.90;;;;;;;16.25;48.86;99791.81;5023093;28;20422;-72
2023/03/22 21:29:28;;;;;;;1999.90;999.90;;;;;;;16.26;49.21;99799.75;5028100;28;20509;-72
2023/03/22 21:31:55;;;;;;;1999.90;999.90;;;;;;;16.24;49.31;99799.19;5030250;28;20391;-72
2023/03/22 21:34:20;;;;;;;1999.90;999.90;;;;;;;16.07;49.94;99807.94;5026203;28;20416;-72
2023/03/22 21:36:47;;;;;;;1999.90;999.90;;;;;;;15.87;51.34;99815.66;5019693;28;20947;-73
2023/03/22 21:39:13;;;;;;;1999.90;999.90;;;;;;;15.78;51.77;99811.94;5033600;28;20965;-72
2023/03/22 21:41:39;;;;;;;1999.90;999.90;;;;;;;15.78;51.54;99814.66;5018004;28;20493;-72
2023/03/22 21:44:07;;;;;;;1999.90;999.90;;;;;;;15.73;51.60;99812.84;5021599;28;20404;-72
2023/03/22 21:46:36;;;;;;;1999.90;999.90;;;;;;;15.73;51.37;99814.75;5022738;28;20728;-72
2023/03/22 21:49:03;;;;;;;1999.90;999.90;;;;;;;15.71;51.38;99816.97;5020898;28;20436;-72
2023/03/22 21:51:28;;;;;;;1482.35;718.42;;;;;;;15.73;51.54;99814.75;5029445;28;20480;-72
2023/03/22 21:53:55;;;;;;;1318.57;588.83;;;;;;;15.69;51.66;99809.06;5034517;28;20853;-72
2023/03/22 21:56:20;;;;;;;1999.90;999.90;;;;;;;15.70;51.48;99813.41;5026529;28;20948;-72
2023/03/22 21:58:45;;;;;;;1748.40;862.10;;;;;;;15.71;51.22;99803.31;5021669;28;20416;-72
2023/03/22 22:01:11;;;;;;;1474.28;715.95;;;;;;;15.75;51.13;99796.13;5031965;28;20399;-72
2023/03/22 22:03:37;;;;;;;1318.07;644.53;;;;;;;15.78;50.62;99793.63;5030972;28;20381;-72
2023/03/22 22:06:03;;;;;;;1791.72;894.17;;;;;;;15.75;50.85;99796.13;5022157;28;20506;-72
2023/03/22 22:08:28;;;;;;;1781.10;873.40;;;;;;;15.71;51.27;99798.63;5032507;28;20410;-72
2023/03/22 22:10:59;;;;;;;1999.90;999.90;;;;;;;15.73;51.63;99787.44;5018331;28;20393;-72
2023/03/22 22:13:26;;;;;;;1999.90;999.90;;;;;;;15.71;51.97;99779.50;5033309;28;20383;-72
2023/03/22 22:15:56;;;;;;;1999.90;999.90;;;;;;;15.73;52.37;99779.22;5032599;28;20387;-72
2023/03/22 22:18:23;;;;;;;1999.90;999.90;;;;;;;15.71;52.92;99771.31;5035832;28;20951;-72
2023/03/22 22:20:55;;;;;;;1999.90;999.90;;;;;;;15.78;53.11;99777.22;5032907;28;20446;-72
2023/03/22 22:23:21;;;;;;;1999.90;999.90;;;;;;;15.80;53.13;99768.75;5018307;28;20388;-72
2023/03/22 22:25:52;;;;;;;1999.90;999.90;;;;;;;15.73;53.45;99762.84;5043087;28;20383;-72
2023/03/22 22:28:18;;;;;;;1999.90;999.90;;;;;;;15.74;53.23;99773.47;5024830;28;20439;-72
2023/03/22 22:30:43;;;;;;;1999.90;999.90;;;;;;;15.80;53.05;99775.03;5032455;28;20534;-72
2023/03/22 22:33:08;;;;;;;1999.90;999.90;;;;;;;15.80;52.77;99776.94;5015134;28;20868;-72
2023/03/22 22:35:33;;;;;;;1999.90;999.90;;;;;;;15.86;52.70;99773.84;5021783;28;20426;-72
2023/03/22 22:37:59;;;;;;;1999.90;999.90;;;;;;;15.91;52.25;99762.00;5033332;28;20893;-72
2023/03/22 22:40:24;;;;;;;1999.90;999.90;;;;;;;15.92;52.03;99758.19;5017729;28;20412;-73
2023/03/22 22:42:49;;;;;;;1999.90;999.90;;;;;;;15.91;51.88;99771.03;5029761;28;20722;-72
2023/03/22 22:45:15;;;;;;;1999.90;999.90;;;;;;;15.94;51.75;99766.88;5019044;28;20399;-72
2023/03/22 22:47:40;;;;;;;1999.90;999.90;;;;;;;15.91;51.89;99764.75;5022547;28;20393;-72
2023/03/22 22:50:06;;;;;;;1999.90;999.90;;;;;;;15.96;51.72;99756.47;5025302;28;20415;-72
2023/03/22 22:52:36;;;;;;;1999.90;999.90;;;;;;;15.95;51.45;99754.84;5016063;28;20470;-72
2023/03/22 22:55:07;;;;;;;1999.90;999.90;;;;;;;15.91;51.29;99745.63;5033112;28;20427;-72
2023/03/22 22:57:32;;;;;;;1999.90;999.90;;;;;;;15.91;51.21;99743.69;5022759;28;20405;-72
2023/03/22 22:59:57;;;;;;;1999.90;999.90;;;;;;;15.92;51.24;99737.13;5026804;28;20398;-72
2023/03/22 23:02:23;;;;;;;1999.90;999.90;;;;;;;15.91;51.71;99740.97;5016030;28;20389;-71
2023/03/22 23:04:48;;;;;;;1999.90;999.90;;;;;;;15.88;51.13;99729.81;5019127;28;20850;-72
2023/03/22 23:07:14;;;;;;;1999.90;999.90;;;;;;;15.90;51.06;99730.34;5031797;28;20954;-72
2023/03/22 23:09:44;;;;;;;1999.90;999.90;;;;;;;15.88;50.96;99732.53;5019897;28;20392;-72
2023/03/22 23:12:10;;;;;;;1999.90;999.90;;;;;;;15.90;51.12;99735.81;5018921;28;20415;-72
2023/03/22 23:14:36;;;;;;;1999.90;999.90;;;;;;;15.89;51.15;99726.81;5018611;28;20387;-72
2023/03/22 23:17:02;;;;;;;1999.90;999.90;;;;;;;15.90;51.10;99719.41;5032623;28;20390;-72
2023/03/22 23:19:27;;;;;;;1999.90;999.90;;;;;;;15.88;51.10;99724.34;5031894;28;20450;-72
2023/03/22 23:21:59;;;;;;;1999.90;999.90;;;;;;;15.87;51.15;99723.53;5028751;28;20435;-72
2023/03/22 23:24:28;;;;;;;1999.90;999.90;;;;;;;15.85;51.07;99714.84;5018150;28;20395;-72
2023/03/22 23:26:56;;;;;;;1999.90;999.90;;;;;;;15.88;50.94;99719.69;5032451;28;20383;-72
2023/03/22 23:29:22;;;;;;;1999.90;999.90;;;;;;;15.89;51.04;99720.50;5019200;28;20795;-71
2023/03/22 23:31:47;;;;;;;1999.90;999.90;;;;;;;15.85;51.16;99719.47;5017537;28;20405;-71
2023/03/22 23:34:14;;;;;;;1999.90;999.90;;;;;;;15.82;50.98;99718.16;5027669;28;20393;-71
2023/03/22 23:36:48;;;;;;;1999.90;999.90;;;;;;;15.77;51.08;99711.97;5020791;28;20396;-71
2023/03/22 23:39:21;;;;;;;1999.90;999.90;;;;;;;15.77;51.03;99701.88;5018533;28;20421;-71
2023/03/22 23:41:47;;;;;;;1999.90;999.90;;;;;;;15.79;51.18;99707.84;5027159;28;20904;-72
2023/03/22 23:44:13;;;;;;;1999.90;999.90;;;;;;;15.76;50.92;99693.94;5018700;28;20474;-72
2023/03/22 23:46:39;;;;;;;1999.90;999.90;;;;;;;15.77;50.91;99693.66;5032355;28;20453;-72
2023/03/22 23:49:05;;;;;;;1999.90;999.90;;;;;;;15.77;51.09;99682.75;5018466;28;20739;-72
2023/03/22 23:51:31;;;;;;;1999.90;999.90;;;;;;;15.77;51.05;99679.19;5020713;28;20417;-71
2023/03/22 23:53:57;;;;;;;1999.90;999.90;;;;;;;15.77;50.76;99676.47;5032028;28;20736;-72
2023/03/22 23:56:23;;;;;;;1999.90;999.90;;;;;;;15.79;50.89;99682.44;5022937;28;20388;-72
2023/03/22 23:58:50;;;;;;;1999.90;999.90;;;;;;;15.80;50.51;99675.88;5025327;28;20486;-72
